PGT1915 LCEN-LTFJ
Flight info
| Callsign | PGT1915 |
|---|---|
| Flight time | 1h 24m |
| Altitude | 36000 |
| Route | GIRNE DCT DOREN A28 UMDOT UT38 VAPEK UL610 EKSEN L610 ETAMP |
| Aircraft | A21N/M-SDE2E3FGHIJ1RWXY/LB1 |
Departure
| Time | 2026-05-08 00:42 |
|---|---|
| Airport | Ercan International Airport (LCEN) |
Arrival
| Time | 2026-05-08 02:06 |
|---|---|
| Airport | Istanbul Sabiha Gökçen International Airport (LTFJ) |
| Time | Latitude | Longitude | Altitude | Speed | Heading |
|---|---|---|---|---|---|
| 2026-05-08 00:14 | 35.15755 | 33.50129 | 417 ft | 0 kts | 21° |
| 2026-05-08 00:34 | 35.15741 | 33.50122 | 397 ft | 4 kts | 11° |
| 2026-05-08 00:34 | 35.15717 | 33.50124 | 394 ft | 4 kts | 322° |
| 2026-05-08 00:35 | 35.15709 | 33.50135 | 397 ft | 0 kts | 292° |
| 2026-05-08 00:37 | 35.15713 | 33.50126 | 396 ft | 3 kts | 292° |
| 2026-05-08 00:38 | 35.15734 | 33.50058 | 401 ft | 6 kts | 282° |
| 2026-05-08 00:38 | 35.15734 | 33.50011 | 398 ft | 7 kts | 264° |
| 2026-05-08 00:38 | 35.15732 | 33.49985 | 398 ft | 9 kts | 264° |
| 2026-05-08 00:38 | 35.15722 | 33.49900 | 398 ft | 11 kts | 261° |
| 2026-05-08 00:39 | 35.15709 | 33.49802 | 396 ft | 12 kts | 256° |
| 2026-05-08 00:39 | 35.15697 | 33.49743 | 394 ft | 7 kts | 256° |
| 2026-05-08 00:39 | 35.15684 | 33.49681 | 396 ft | 8 kts | 256° |
| 2026-05-08 00:39 | 35.15642 | 33.49633 | 398 ft | 10 kts | 171° |
| 2026-05-08 00:40 | 35.15576 | 33.49680 | 398 ft | 12 kts | 143° |
| 2026-05-08 00:40 | 35.15508 | 33.49748 | 398 ft | 13 kts | 139° |
| 2026-05-08 00:40 | 35.15454 | 33.49784 | 398 ft | 6 kts | 160° |
| 2026-05-08 00:40 | 35.15423 | 33.49828 | 395 ft | 8 kts | 113° |
| 2026-05-08 00:41 | 35.15374 | 33.49975 | 395 ft | 48 kts | 111° |
| 2026-05-08 00:41 | 35.15157 | 33.50637 | 397 ft | 117 kts | 112° |
| 2026-05-08 00:41 | 35.14784 | 33.51775 | 402 ft | 168 kts | 112° |
| 2026-05-08 00:41 | 35.14384 | 33.53133 | 906 ft | 168 kts | 108° |
| 2026-05-08 00:42 | 35.14162 | 33.54538 | 1518 ft | 174 kts | 92° |
| 2026-05-08 00:42 | 35.14105 | 33.56092 | 1915 ft | 193 kts | 89° |
| 2026-05-08 00:42 | 35.14052 | 33.57795 | 2458 ft | 209 kts | 89° |
| 2026-05-08 00:42 | 35.13993 | 33.59634 | 3065 ft | 223 kts | 89° |
| 2026-05-08 00:43 | 35.13927 | 33.61632 | 3504 ft | 248 kts | 90° |
| 2026-05-08 00:43 | 35.13856 | 33.63800 | 4157 ft | 260 kts | 90° |
| 2026-05-08 00:43 | 35.13781 | 33.66018 | 5048 ft | 262 kts | 90° |
| 2026-05-08 00:43 | 35.13706 | 33.68221 | 5937 ft | 264 kts | 90° |
| 2026-05-08 00:44 | 35.13629 | 33.70473 | 6816 ft | 266 kts | 90° |
| 2026-05-08 00:44 | 35.13551 | 33.72748 | 7607 ft | 271 kts | 90° |
| 2026-05-08 00:44 | 35.13472 | 33.75071 | 8375 ft | 277 kts | 90° |
| 2026-05-08 00:44 | 35.13391 | 33.77442 | 9155 ft | 283 kts | 90° |
| 2026-05-08 00:45 | 35.13308 | 33.79867 | 9939 ft | 289 kts | 90° |
| 2026-05-08 00:45 | 35.13314 | 33.82372 | 10440 ft | 304 kts | 82° |
| 2026-05-08 00:45 | 35.13865 | 33.84930 | 10749 ft | 322 kts | 64° |
| 2026-05-08 00:45 | 35.15159 | 33.87235 | 11044 ft | 339 kts | 43° |
| 2026-05-08 00:46 | 35.17108 | 33.88898 | 11579 ft | 346 kts | 23° |
| 2026-05-08 00:46 | 35.19428 | 33.89650 | 12281 ft | 348 kts | 3° |
| 2026-05-08 00:46 | 35.21841 | 33.89440 | 13015 ft | 350 kts | 348° |
| 2026-05-08 00:46 | 35.23451 | 33.89002 | 13523 ft | 352 kts | 344° |
| 2026-05-08 00:47 | 35.26571 | 33.87826 | 14438 ft | 356 kts | 339° |
| 2026-05-08 00:47 | 35.28106 | 33.87105 | 14900 ft | 357 kts | 336° |
| 2026-05-08 00:47 | 35.30374 | 33.85856 | 15610 ft | 358 kts | 333° |
| 2026-05-08 00:47 | 35.32572 | 33.84405 | 16322 ft | 359 kts | 329° |
| 2026-05-08 00:48 | 35.34682 | 33.82757 | 17048 ft | 361 kts | 325° |
| 2026-05-08 00:48 | 35.36698 | 33.80915 | 17753 ft | 362 kts | 321° |
| 2026-05-08 00:48 | 35.38608 | 33.78885 | 18432 ft | 364 kts | 317° |
| 2026-05-08 00:48 | 35.40390 | 33.76666 | 19004 ft | 367 kts | 313° |
| 2026-05-08 00:49 | 35.42039 | 33.74267 | 19556 ft | 369 kts | 308° |
| 2026-05-08 00:49 | 35.43543 | 33.71700 | 20104 ft | 372 kts | 304° |
| 2026-05-08 00:49 | 35.44894 | 33.68976 | 20649 ft | 375 kts | 300° |
| 2026-05-08 00:49 | 35.46077 | 33.66110 | 21173 ft | 379 kts | 295° |
| 2026-05-08 00:50 | 35.47078 | 33.63106 | 21705 ft | 382 kts | 291° |
| 2026-05-08 00:50 | 35.47889 | 33.59985 | 22241 ft | 386 kts | 287° |
| 2026-05-08 00:50 | 35.48500 | 33.56769 | 22774 ft | 389 kts | 282° |
| 2026-05-08 00:50 | 35.48899 | 33.53467 | 23311 ft | 393 kts | 278° |
| 2026-05-08 00:51 | 35.49205 | 33.50125 | 23786 ft | 395 kts | 282° |
| 2026-05-08 00:51 | 35.49977 | 33.46898 | 24207 ft | 395 kts | 294° |
| 2026-05-08 00:51 | 35.51317 | 33.43952 | 24624 ft | 397 kts | 306° |
| 2026-05-08 00:51 | 35.53162 | 33.41424 | 25041 ft | 400 kts | 317° |
| 2026-05-08 00:52 | 35.55436 | 33.39436 | 25434 ft | 404 kts | 329° |
| 2026-05-08 00:52 | 35.58036 | 33.38089 | 25830 ft | 410 kts | 340° |
| 2026-05-08 00:52 | 35.60792 | 33.37140 | 26231 ft | 413 kts | 342° |
| 2026-05-08 00:52 | 35.63574 | 33.36237 | 26619 ft | 415 kts | 343° |
| 2026-05-08 00:53 | 35.66407 | 33.35464 | 26999 ft | 418 kts | 345° |
| 2026-05-08 00:53 | 35.69257 | 33.34710 | 27378 ft | 420 kts | 345° |
| 2026-05-08 00:53 | 35.72124 | 33.33944 | 27735 ft | 423 kts | 345° |
| 2026-05-08 00:53 | 35.75003 | 33.33170 | 28090 ft | 425 kts | 345° |
| 2026-05-08 00:54 | 35.77897 | 33.32391 | 28440 ft | 427 kts | 345° |
| 2026-05-08 00:54 | 35.80809 | 33.31609 | 28790 ft | 429 kts | 345° |
| 2026-05-08 00:54 | 35.83730 | 33.30822 | 29128 ft | 431 kts | 345° |
| 2026-05-08 00:54 | 35.86666 | 33.30027 | 29470 ft | 433 kts | 345° |
| 2026-05-08 00:55 | 35.89618 | 33.29226 | 29791 ft | 435 kts | 345° |
| 2026-05-08 00:55 | 35.92597 | 33.28501 | 30109 ft | 439 kts | 349° |
| 2026-05-08 00:55 | 35.95658 | 33.28310 | 30439 ft | 443 kts | 358° |
| 2026-05-08 00:55 | 35.98736 | 33.28426 | 30801 ft | 442 kts | 359° |
| 2026-05-08 00:56 | 36.01804 | 33.28570 | 31183 ft | 440 kts | 359° |
| 2026-05-08 00:56 | 36.04858 | 33.28631 | 31536 ft | 438 kts | 356° |
| 2026-05-08 00:56 | 36.07905 | 33.28593 | 31886 ft | 437 kts | 356° |
| 2026-05-08 00:56 | 36.10940 | 33.28542 | 32240 ft | 436 kts | 355° |
| 2026-05-08 00:57 | 36.13971 | 33.28484 | 32608 ft | 435 kts | 355° |
| 2026-05-08 00:57 | 36.16989 | 33.28471 | 32989 ft | 433 kts | 356° |
| 2026-05-08 00:57 | 36.19990 | 33.28501 | 33356 ft | 431 kts | 356° |
| 2026-05-08 00:57 | 36.22984 | 33.28536 | 33681 ft | 430 kts | 356° |
| 2026-05-08 00:58 | 36.25971 | 33.28565 | 33937 ft | 428 kts | 356° |
| 2026-05-08 00:58 | 36.28950 | 33.28589 | 34178 ft | 428 kts | 356° |
| 2026-05-08 00:58 | 36.31924 | 33.28550 | 34416 ft | 425 kts | 352° |
| 2026-05-08 00:58 | 36.34823 | 33.27995 | 34673 ft | 419 kts | 342° |
| 2026-05-08 00:59 | 36.37545 | 33.26778 | 34925 ft | 413 kts | 332° |
| 2026-05-08 00:59 | 36.39993 | 33.24954 | 35171 ft | 409 kts | 322° |
| 2026-05-08 00:59 | 36.42074 | 33.22641 | 35381 ft | 407 kts | 312° |
| 2026-05-08 00:59 | 36.43869 | 33.19931 | 35588 ft | 406 kts | 308° |
| 2026-05-08 01:00 | 36.45589 | 33.17152 | 35785 ft | 405 kts | 308° |
| 2026-05-08 01:00 | 36.47312 | 33.14385 | 35985 ft | 405 kts | 308° |
| 2026-05-08 01:00 | 36.49039 | 33.11630 | 36165 ft | 404 kts | 309° |
| 2026-05-08 01:01 | 36.52483 | 33.06125 | 36206 ft | 403 kts | 309° |
| 2026-05-08 01:01 | 36.55931 | 33.00632 | 36198 ft | 403 kts | 309° |
| 2026-05-08 01:02 | 36.59364 | 32.95128 | 36189 ft | 403 kts | 308° |
| 2026-05-08 01:02 | 36.62804 | 32.89625 | 36209 ft | 403 kts | 309° |
| 2026-05-08 01:03 | 36.66231 | 32.84141 | 36210 ft | 401 kts | 309° |
| 2026-05-08 01:03 | 36.69654 | 32.78641 | 36218 ft | 402 kts | 309° |
| 2026-05-08 01:04 | 36.73086 | 32.73153 | 36219 ft | 401 kts | 309° |
| 2026-05-08 01:04 | 36.76504 | 32.67656 | 36215 ft | 401 kts | 308° |
| 2026-05-08 01:05 | 36.79917 | 32.62152 | 36223 ft | 401 kts | 309° |
| 2026-05-08 01:05 | 36.83314 | 32.56664 | 36223 ft | 399 kts | 308° |
| 2026-05-08 01:06 | 36.86680 | 32.51211 | 36224 ft | 399 kts | 308° |
| 2026-05-08 01:06 | 36.90067 | 32.45725 | 36229 ft | 399 kts | 308° |
| 2026-05-08 01:07 | 36.93458 | 32.40232 | 36222 ft | 399 kts | 308° |
| 2026-05-08 01:07 | 36.96850 | 32.34737 | 36231 ft | 399 kts | 308° |
| 2026-05-08 01:08 | 37.00224 | 32.29249 | 36225 ft | 398 kts | 308° |
| 2026-05-08 01:08 | 37.03591 | 32.23757 | 36228 ft | 397 kts | 308° |
| 2026-05-08 01:09 | 37.06956 | 32.18269 | 36223 ft | 397 kts | 308° |
| 2026-05-08 01:09 | 37.10314 | 32.12783 | 36223 ft | 397 kts | 308° |
| 2026-05-08 01:10 | 37.13673 | 32.07290 | 36227 ft | 397 kts | 308° |
| 2026-05-08 01:10 | 37.17014 | 32.01824 | 36226 ft | 394 kts | 308° |
| 2026-05-08 01:11 | 37.20353 | 31.96345 | 36226 ft | 394 kts | 308° |
| 2026-05-08 01:11 | 37.23682 | 31.90878 | 36225 ft | 394 kts | 308° |
| 2026-05-08 01:12 | 37.27003 | 31.85410 | 36224 ft | 394 kts | 308° |
| 2026-05-08 01:12 | 37.30324 | 31.79933 | 36227 ft | 394 kts | 308° |
| 2026-05-08 01:13 | 37.33624 | 31.74482 | 36222 ft | 391 kts | 308° |
| 2026-05-08 01:13 | 37.36879 | 31.69010 | 36224 ft | 391 kts | 306° |
| 2026-05-08 01:14 | 37.39866 | 31.63282 | 36218 ft | 391 kts | 305° |
| 2026-05-08 01:14 | 37.42837 | 31.57546 | 36220 ft | 391 kts | 305° |
| 2026-05-08 01:15 | 37.45785 | 31.51837 | 36213 ft | 391 kts | 305° |
| 2026-05-08 01:15 | 37.48723 | 31.46142 | 36219 ft | 386 kts | 305° |
| 2026-05-08 01:16 | 37.51649 | 31.40463 | 36217 ft | 386 kts | 305° |
| 2026-05-08 01:16 | 37.54570 | 31.34789 | 36223 ft | 385 kts | 305° |
| 2026-05-08 01:17 | 37.57501 | 31.29082 | 36221 ft | 389 kts | 304° |
| 2026-05-08 01:17 | 37.60439 | 31.23351 | 36213 ft | 389 kts | 305° |
| 2026-05-08 01:18 | 37.63347 | 31.17671 | 36217 ft | 384 kts | 305° |
| 2026-05-08 01:18 | 37.66231 | 31.12025 | 36226 ft | 383 kts | 305° |
| 2026-05-08 01:19 | 37.69111 | 31.06382 | 36219 ft | 382 kts | 305° |
| 2026-05-08 01:19 | 37.71987 | 31.00737 | 36221 ft | 382 kts | 305° |
| 2026-05-08 01:20 | 37.74855 | 30.95095 | 36215 ft | 381 kts | 305° |
| 2026-05-08 01:20 | 37.77675 | 30.89533 | 36220 ft | 374 kts | 305° |
| 2026-05-08 01:21 | 37.80481 | 30.83997 | 36213 ft | 373 kts | 305° |
| 2026-05-08 01:21 | 37.83261 | 30.78490 | 36239 ft | 374 kts | 305° |
| 2026-05-08 01:22 | 37.86062 | 30.72946 | 36239 ft | 374 kts | 305° |
| 2026-05-08 01:22 | 37.89280 | 30.67840 | 36236 ft | 371 kts | 319° |
| 2026-05-08 01:23 | 37.93658 | 30.64406 | 36237 ft | 373 kts | 333° |
| 2026-05-08 01:23 | 37.98463 | 30.61836 | 36239 ft | 378 kts | 334° |
| 2026-05-08 01:24 | 38.03324 | 30.59209 | 36243 ft | 379 kts | 334° |
| 2026-05-08 01:24 | 38.08180 | 30.56548 | 36253 ft | 380 kts | 333° |
| 2026-05-08 01:25 | 38.13029 | 30.53896 | 36245 ft | 379 kts | 333° |
| 2026-05-08 01:25 | 38.17866 | 30.51251 | 36251 ft | 378 kts | 333° |
| 2026-05-08 01:26 | 38.22714 | 30.48584 | 36264 ft | 382 kts | 333° |
| 2026-05-08 01:26 | 38.27605 | 30.45888 | 36255 ft | 383 kts | 333° |
| 2026-05-08 01:27 | 38.32493 | 30.43189 | 36250 ft | 383 kts | 333° |
| 2026-05-08 01:27 | 38.37378 | 30.40498 | 36255 ft | 383 kts | 333° |
| 2026-05-08 01:28 | 38.42228 | 30.37812 | 36251 ft | 375 kts | 333° |
| 2026-05-08 01:28 | 38.47033 | 30.35151 | 36260 ft | 380 kts | 333° |
| 2026-05-08 01:29 | 38.51891 | 30.32455 | 36255 ft | 381 kts | 333° |
| 2026-05-08 01:29 | 38.56753 | 30.29757 | 36252 ft | 381 kts | 333° |
| 2026-05-08 01:30 | 38.61618 | 30.27055 | 36250 ft | 381 kts | 333° |
| 2026-05-08 01:30 | 38.66474 | 30.24360 | 36255 ft | 380 kts | 333° |
| 2026-05-08 01:31 | 38.71332 | 30.21654 | 36254 ft | 380 kts | 333° |
| 2026-05-08 01:31 | 38.76187 | 30.18945 | 36256 ft | 381 kts | 333° |
| 2026-05-08 01:32 | 38.81037 | 30.16229 | 36256 ft | 380 kts | 333° |
| 2026-05-08 01:32 | 38.85851 | 30.13538 | 36252 ft | 371 kts | 333° |
| 2026-05-08 01:33 | 38.90602 | 30.10872 | 36248 ft | 379 kts | 333° |
| 2026-05-08 01:33 | 38.95413 | 30.08165 | 36262 ft | 378 kts | 333° |
| 2026-05-08 01:34 | 39.00235 | 30.05449 | 36257 ft | 378 kts | 333° |
| 2026-05-08 01:34 | 39.05054 | 30.02729 | 36253 ft | 378 kts | 333° |
| 2026-05-08 01:35 | 39.09846 | 30.00038 | 36251 ft | 370 kts | 333° |
| 2026-05-08 01:35 | 39.14589 | 29.97366 | 36255 ft | 377 kts | 333° |
| 2026-05-08 01:36 | 39.19434 | 29.94630 | 36260 ft | 384 kts | 333° |
| 2026-05-08 01:36 | 39.23535 | 29.92304 | 36252 ft | 385 kts | 333° |
| 2026-05-08 01:37 | 39.28401 | 29.89542 | 36253 ft | 385 kts | 333° |
| 2026-05-08 01:37 | 39.33295 | 29.86764 | 36252 ft | 383 kts | 333° |
| 2026-05-08 01:38 | 39.38107 | 29.84032 | 36245 ft | 378 kts | 333° |
| 2026-05-08 01:38 | 39.42988 | 29.81294 | 36235 ft | 384 kts | 333° |
| 2026-05-08 01:39 | 39.47878 | 29.78554 | 36241 ft | 382 kts | 333° |
| 2026-05-08 01:39 | 39.52751 | 29.75818 | 36235 ft | 382 kts | 332° |
| 2026-05-08 01:40 | 39.57625 | 29.73071 | 36232 ft | 382 kts | 332° |
| 2026-05-08 01:40 | 39.62717 | 29.71346 | 35566 ft | 386 kts | 352° |
| 2026-05-08 01:40 | 39.65449 | 29.71604 | 34628 ft | 403 kts | 3° |
| 2026-05-08 01:41 | 39.68239 | 29.72329 | 33542 ft | 414 kts | 6° |
| 2026-05-08 01:41 | 39.71087 | 29.73133 | 32411 ft | 424 kts | 7° |
| 2026-05-08 01:41 | 39.74008 | 29.73944 | 31276 ft | 434 kts | 7° |
| 2026-05-08 01:41 | 39.76999 | 29.74749 | 30141 ft | 444 kts | 8° |
| 2026-05-08 01:42 | 39.80043 | 29.75551 | 29271 ft | 445 kts | 8° |
| 2026-05-08 01:42 | 39.83066 | 29.76352 | 28587 ft | 441 kts | 8° |
| 2026-05-08 01:42 | 39.86051 | 29.77139 | 27948 ft | 433 kts | 8° |
| 2026-05-08 01:42 | 39.88975 | 29.77904 | 27369 ft | 426 kts | 8° |
| 2026-05-08 01:43 | 39.91862 | 29.78660 | 26813 ft | 421 kts | 8° |
| 2026-05-08 01:43 | 39.94676 | 29.79399 | 26277 ft | 416 kts | 8° |
| 2026-05-08 01:43 | 39.97495 | 29.80138 | 25755 ft | 410 kts | 8° |
| 2026-05-08 01:43 | 40.00274 | 29.80866 | 25267 ft | 405 kts | 8° |
| 2026-05-08 01:44 | 40.03021 | 29.81589 | 24751 ft | 401 kts | 8° |
| 2026-05-08 01:44 | 40.05740 | 29.82300 | 24247 ft | 397 kts | 8° |
| 2026-05-08 01:44 | 40.08432 | 29.83003 | 23754 ft | 393 kts | 8° |
| 2026-05-08 01:44 | 40.11099 | 29.83707 | 23174 ft | 389 kts | 8° |
| 2026-05-08 01:45 | 40.13732 | 29.84404 | 22644 ft | 384 kts | 8° |
| 2026-05-08 01:45 | 40.16336 | 29.85094 | 22119 ft | 379 kts | 8° |
| 2026-05-08 01:45 | 40.18909 | 29.85770 | 21611 ft | 375 kts | 8° |
| 2026-05-08 01:45 | 40.21456 | 29.86443 | 21116 ft | 371 kts | 8° |
| 2026-05-08 01:46 | 40.23976 | 29.87111 | 20649 ft | 367 kts | 8° |
| 2026-05-08 01:46 | 40.26461 | 29.87771 | 20195 ft | 362 kts | 8° |
| 2026-05-08 01:46 | 40.28919 | 29.88424 | 19762 ft | 359 kts | 8° |
| 2026-05-08 01:46 | 40.31365 | 29.89073 | 19339 ft | 358 kts | 8° |
| 2026-05-08 01:47 | 40.33801 | 29.89718 | 18938 ft | 357 kts | 8° |
| 2026-05-08 01:47 | 40.36237 | 29.90361 | 18526 ft | 356 kts | 8° |
| 2026-05-08 01:47 | 40.38674 | 29.91001 | 17824 ft | 358 kts | 8° |
| 2026-05-08 01:48 | 40.43499 | 29.92293 | 16893 ft | 349 kts | 9° |
| 2026-05-08 01:48 | 40.45856 | 29.92924 | 16492 ft | 343 kts | 9° |
| 2026-05-08 01:48 | 40.48191 | 29.93543 | 16108 ft | 342 kts | 9° |
| 2026-05-08 01:48 | 40.50518 | 29.94163 | 15735 ft | 341 kts | 9° |
| 2026-05-08 01:49 | 40.52840 | 29.94781 | 15370 ft | 340 kts | 9° |
| 2026-05-08 01:49 | 40.55159 | 29.95397 | 14994 ft | 340 kts | 9° |
| 2026-05-08 01:49 | 40.57477 | 29.96019 | 14618 ft | 340 kts | 9° |
| 2026-05-08 01:49 | 40.59796 | 29.96642 | 14232 ft | 340 kts | 9° |
| 2026-05-08 01:50 | 40.62117 | 29.97263 | 13815 ft | 341 kts | 9° |
| 2026-05-08 01:50 | 40.64447 | 29.97883 | 13398 ft | 341 kts | 9° |
| 2026-05-08 01:50 | 40.66770 | 29.98504 | 13009 ft | 340 kts | 9° |
| 2026-05-08 01:50 | 40.69086 | 29.99129 | 12636 ft | 339 kts | 9° |
| 2026-05-08 01:51 | 40.71391 | 29.99749 | 12257 ft | 338 kts | 10° |
| 2026-05-08 01:51 | 40.73603 | 30.00775 | 11838 ft | 338 kts | 28° |
| 2026-05-08 01:51 | 40.75376 | 30.02785 | 11424 ft | 337 kts | 48° |
| 2026-05-08 01:51 | 40.76798 | 30.05220 | 11054 ft | 333 kts | 52° |
| 2026-05-08 01:52 | 40.78158 | 30.07653 | 10749 ft | 326 kts | 51° |
| 2026-05-08 01:52 | 40.79498 | 30.10004 | 10559 ft | 315 kts | 51° |
| 2026-05-08 01:52 | 40.80847 | 30.12214 | 10413 ft | 302 kts | 42° |
| 2026-05-08 01:52 | 40.82570 | 30.13596 | 10251 ft | 284 kts | 12° |
| 2026-05-08 01:53 | 40.84433 | 30.13664 | 10117 ft | 266 kts | 344° |
| 2026-05-08 01:53 | 40.86047 | 30.12634 | 9873 ft | 255 kts | 319° |
| 2026-05-08 01:53 | 40.87136 | 30.10846 | 9576 ft | 248 kts | 298° |
| 2026-05-08 01:53 | 40.87927 | 30.08827 | 9304 ft | 248 kts | 296° |
| 2026-05-08 01:54 | 40.88706 | 30.06799 | 9033 ft | 247 kts | 297° |
| 2026-05-08 01:54 | 40.89499 | 30.04787 | 8773 ft | 246 kts | 297° |
| 2026-05-08 01:54 | 40.90302 | 30.02790 | 8542 ft | 245 kts | 297° |
| 2026-05-08 01:54 | 40.91104 | 30.00807 | 8309 ft | 244 kts | 297° |
| 2026-05-08 01:55 | 40.91908 | 29.98831 | 8078 ft | 244 kts | 298° |
| 2026-05-08 01:55 | 40.92710 | 29.96865 | 7841 ft | 243 kts | 298° |
| 2026-05-08 01:55 | 40.93513 | 29.94907 | 7609 ft | 242 kts | 298° |
| 2026-05-08 01:55 | 40.94316 | 29.92957 | 7381 ft | 241 kts | 298° |
| 2026-05-08 01:56 | 40.95120 | 29.91016 | 7144 ft | 240 kts | 298° |
| 2026-05-08 01:56 | 40.95920 | 29.89082 | 6914 ft | 239 kts | 298° |
| 2026-05-08 01:56 | 40.96719 | 29.87153 | 6681 ft | 239 kts | 298° |
| 2026-05-08 01:56 | 40.97515 | 29.85227 | 6441 ft | 238 kts | 297° |
| 2026-05-08 01:57 | 40.98305 | 29.83311 | 6211 ft | 236 kts | 297° |
| 2026-05-08 01:57 | 40.99091 | 29.81411 | 5966 ft | 235 kts | 297° |
| 2026-05-08 01:57 | 40.99861 | 29.79546 | 5738 ft | 234 kts | 297° |
| 2026-05-08 01:57 | 41.00639 | 29.77657 | 5514 ft | 233 kts | 297° |
| 2026-05-08 01:58 | 41.01422 | 29.75752 | 5279 ft | 232 kts | 297° |
| 2026-05-08 01:58 | 41.02176 | 29.73912 | 5086 ft | 229 kts | 296° |
| 2026-05-08 01:58 | 41.02922 | 29.72054 | 4959 ft | 228 kts | 296° |
| 2026-05-08 01:58 | 41.03528 | 29.70127 | 4939 ft | 227 kts | 281° |
| 2026-05-08 01:59 | 41.03454 | 29.68058 | 4957 ft | 228 kts | 256° |
| 2026-05-08 01:59 | 41.02873 | 29.66163 | 4953 ft | 211 kts | 241° |
| 2026-05-08 01:59 | 41.02170 | 29.64559 | 4954 ft | 199 kts | 246° |
| 2026-05-08 01:59 | 41.01558 | 29.62920 | 4962 ft | 198 kts | 246° |
| 2026-05-08 02:00 | 41.00954 | 29.61275 | 5025 ft | 199 kts | 246° |
| 2026-05-08 02:00 | 41.00351 | 29.59624 | 5028 ft | 199 kts | 246° |
| 2026-05-08 02:00 | 40.99761 | 29.58010 | 4974 ft | 188 kts | 246° |
| 2026-05-08 02:00 | 40.99204 | 29.56486 | 4791 ft | 182 kts | 246° |
| 2026-05-08 02:01 | 40.98656 | 29.54987 | 4556 ft | 180 kts | 246° |
| 2026-05-08 02:01 | 40.98113 | 29.53499 | 4286 ft | 179 kts | 246° |
| 2026-05-08 02:01 | 40.97572 | 29.52020 | 4000 ft | 178 kts | 245° |
| 2026-05-08 02:01 | 40.97034 | 29.50548 | 3730 ft | 178 kts | 245° |
| 2026-05-08 02:02 | 40.96506 | 29.49104 | 3462 ft | 169 kts | 245° |
| 2026-05-08 02:02 | 40.96016 | 29.47764 | 3237 ft | 154 kts | 245° |
| 2026-05-08 02:02 | 40.95582 | 29.46579 | 3008 ft | 136 kts | 245° |
| 2026-05-08 02:02 | 40.95172 | 29.45456 | 2779 ft | 135 kts | 244° |
| 2026-05-08 02:03 | 40.94761 | 29.44334 | 2564 ft | 135 kts | 244° |
| 2026-05-08 02:03 | 40.94351 | 29.43214 | 2363 ft | 135 kts | 244° |
| 2026-05-08 02:03 | 40.93940 | 29.42089 | 2147 ft | 136 kts | 243° |
| 2026-05-08 02:03 | 40.93536 | 29.40960 | 1894 ft | 136 kts | 243° |
| 2026-05-08 02:04 | 40.93108 | 29.39845 | 1735 ft | 136 kts | 242° |
| 2026-05-08 02:04 | 40.92700 | 29.38714 | 1503 ft | 137 kts | 243° |
| 2026-05-08 02:04 | 40.92289 | 29.37581 | 1289 ft | 137 kts | 243° |
| 2026-05-08 02:04 | 40.91874 | 29.36439 | 1097 ft | 138 kts | 243° |
| 2026-05-08 02:05 | 40.91450 | 29.35295 | 890 ft | 139 kts | 244° |
| 2026-05-08 02:05 | 40.91031 | 29.34145 | 677 ft | 139 kts | 246° |
| 2026-05-08 02:05 | 40.90612 | 29.32998 | 434 ft | 138 kts | 245° |
| 2026-05-08 02:05 | 40.90209 | 29.31882 | 318 ft | 123 kts | 245° |
| 2026-05-08 02:06 | 40.89913 | 29.31077 | 316 ft | 74 kts | 244° |
| 2026-05-08 02:06 | 40.89808 | 29.30707 | 317 ft | 33 kts | 272° |
| 2026-05-08 02:06 | 40.89820 | 29.30502 | 316 ft | 14 kts | 275° |
| 2026-05-08 02:06 | 40.89841 | 29.30425 | 315 ft | 8 kts | 328° |
| 2026-05-08 02:07 | 40.89893 | 29.30453 | 315 ft | 10 kts | 58° |
| 2026-05-08 02:07 | 40.89928 | 29.30544 | 316 ft | 12 kts | 64° |
| 2026-05-08 02:07 | 40.89967 | 29.30652 | 316 ft | 14 kts | 64° |
| 2026-05-08 02:07 | 40.90012 | 29.30776 | 316 ft | 16 kts | 64° |
| 2026-05-08 02:08 | 40.90047 | 29.30872 | 316 ft | 8 kts | 64° |
| 2026-05-08 02:08 | 40.90091 | 29.30930 | 316 ft | 10 kts | 15° |
| 2026-05-08 02:08 | 40.90165 | 29.30904 | 316 ft | 8 kts | 333° |
| 2026-05-08 02:08 | 40.90172 | 29.30899 | 316 ft | 0 kts | 333° |
| 2026-05-08 02:10 | 40.90173 | 29.30898 | 315 ft | 2 kts | 333° |
| 2026-05-08 02:10 | 40.90200 | 29.30881 | 316 ft | 5 kts | 333° |
| 2026-05-08 02:10 | 40.90241 | 29.30888 | 316 ft | 8 kts | 36° |
| 2026-05-08 02:11 | 40.90273 | 29.30955 | 316 ft | 10 kts | 65° |
| 2026-05-08 02:11 | 40.90304 | 29.31043 | 316 ft | 12 kts | 64° |
| 2026-05-08 02:11 | 40.90343 | 29.31148 | 316 ft | 14 kts | 64° |
| 2026-05-08 02:11 | 40.90388 | 29.31267 | 316 ft | 15 kts | 64° |
| 2026-05-08 02:12 | 40.90418 | 29.31351 | 316 ft | 7 kts | 64° |
| 2026-05-08 02:12 | 40.90450 | 29.31388 | 316 ft | 7 kts | 355° |
| 2026-05-08 02:12 | 40.90497 | 29.31363 | 316 ft | 6 kts | 334° |
| 2026-05-08 02:12 | 40.90503 | 29.31360 | 316 ft | 1 kts | 334° |
| 2026-05-08 02:13 | 40.90505 | 29.31358 | 316 ft | 0 kts | 334° |